createdAt,value
2023-01-02T00:00:54.224Z,7.93
2023-01-02T00:03:20.849Z,8.63
2023-01-02T00:05:47.469Z,8.48
2023-01-02T00:08:14.025Z,7.95
2023-01-02T00:10:40.614Z,8.05
2023-01-02T00:13:07.083Z,9.75
2023-01-02T00:15:33.727Z,8.73
2023-01-02T00:18:00.271Z,9.10
2023-01-02T00:20:26.816Z,7.55
2023-01-02T00:22:53.732Z,8.00
2023-01-02T00:25:20.313Z,7.22
2023-01-02T00:27:46.824Z,7.45
2023-01-02T00:30:13.878Z,6.90
2023-01-02T00:32:40.548Z,7.13
2023-01-02T00:35:07.437Z,8.43
2023-01-02T00:37:33.969Z,8.85
2023-01-02T00:40:00.495Z,7.43
2023-01-02T00:42:26.990Z,7.38
2023-01-02T00:44:53.497Z,8.13
2023-01-02T00:47:20.056Z,8.23
2023-01-02T00:49:46.589Z,7.63
2023-01-02T00:52:13.143Z,8.02
2023-01-02T00:54:39.649Z,7.43
2023-01-02T00:57:06.193Z,7.28
2023-01-02T00:59:32.713Z,7.38
2023-01-02T01:01:59.345Z,7.22
2023-01-02T01:04:25.951Z,4.82
2023-01-02T01:06:52.429Z,6.00
2023-01-02T01:09:18.943Z,5.10
2023-01-02T01:11:45.444Z,4.63
2023-01-02T01:14:12.097Z,5.85
2023-01-02T01:16:38.732Z,6.72
2023-01-02T01:19:05.260Z,5.78
2023-01-02T01:21:31.859Z,5.95
2023-01-02T01:23:58.589Z,6.30
2023-01-02T01:26:25.351Z,5.85
2023-01-02T01:28:55.885Z,5.25
2023-01-02T01:31:24.060Z,6.60
2023-01-02T01:33:51.072Z,7.53
2023-01-02T01:36:20.667Z,5.70
2023-01-02T01:38:48.060Z,4.45
2023-01-02T01:41:17.217Z,4.53
2023-01-02T01:43:51.553Z,5.72
2023-01-02T01:46:23.661Z,5.25
2023-01-02T01:48:57.733Z,5.70
2023-01-02T01:51:26.262Z,6.13
2023-01-02T01:54:00.238Z,5.95
2023-01-02T01:56:27.764Z,5.97
2023-01-02T01:58:54.394Z,5.03
2023-01-02T02:01:20.988Z,5.30
2023-01-02T02:03:50.463Z,5.53
2023-01-02T02:06:18.789Z,4.20
2023-01-02T02:08:52.369Z,5.30
2023-01-02T02:11:19.166Z,4.85
2023-01-02T02:13:46.932Z,4.97
2023-01-02T02:16:21.545Z,6.15
2023-01-02T02:19:04.318Z,4.47
2023-01-02T02:21:33.481Z,5.53
2023-01-02T02:24:32.903Z,5.50
2023-01-02T02:27:20.810Z,5.45
2023-01-02T02:30:11.649Z,6.63
2023-01-02T02:33:02.647Z,4.95
2023-01-02T02:35:54.823Z,4.82
2023-01-02T02:38:39.439Z,6.35
2023-01-02T02:41:17.752Z,5.97
2023-01-02T02:44:06.095Z,6.22
2023-01-02T02:46:38.272Z,6.82
2023-01-02T02:49:21.481Z,7.25
2023-01-02T02:51:56.362Z,6.82
2023-01-02T02:54:27.184Z,6.75
2023-01-02T02:56:55.196Z,6.30
2023-01-02T02:59:22.703Z,6.22
2023-01-02T03:01:49.648Z,6.50
2023-01-02T03:04:18.795Z,6.47
2023-01-02T03:06:52.823Z,6.97
2023-01-02T03:09:44.035Z,5.75
2023-01-02T03:12:13.294Z,6.18
2023-01-02T03:14:56.826Z,6.75
2023-01-02T03:18:04.539Z,6.50
2023-01-02T03:20:40.954Z,6.32
2023-01-02T03:23:18.717Z,7.18
2023-01-02T03:25:46.715Z,7.43
2023-01-02T03:28:17.877Z,7.43
2023-01-02T03:30:48.191Z,7.28
2023-01-02T03:33:26.719Z,6.57
2023-01-02T03:35:59.719Z,6.38
2023-01-02T03:38:31.828Z,7.05
2023-01-02T03:41:22.817Z,7.30
2023-01-02T03:43:56.728Z,5.85
2023-01-02T03:46:44.994Z,6.80
2023-01-02T03:49:22.717Z,5.68
2023-01-02T03:51:49.959Z,5.80
2023-01-02T03:54:18.735Z,7.88
2023-01-02T03:57:20.586Z,6.43
2023-01-02T04:00:04.521Z,6.85
2023-01-02T04:02:42.083Z,5.75
2023-01-02T04:05:23.937Z,5.53
2023-01-02T04:08:02.734Z,5.72
2023-01-02T04:10:30.409Z,5.63
2023-01-02T04:13:04.139Z,6.00
2023-01-02T04:15:34.334Z,6.72
2023-01-02T04:18:06.013Z,6.07
2023-01-02T04:20:38.998Z,5.20
2023-01-02T04:23:12.678Z,6.80
2023-01-02T04:25:57.033Z,6.80
2023-01-02T04:28:30.619Z,6.28
2023-01-02T04:31:04.113Z,7.20
2023-01-02T04:33:35.277Z,4.82
2023-01-02T04:36:10.111Z,5.72
2023-01-02T04:38:36.935Z,6.13
2023-01-02T04:41:04.823Z,5.50
2023-01-02T04:43:31.293Z,7.13
2023-01-02T04:45:57.896Z,5.82
2023-01-02T04:48:24.500Z,7.05
2023-01-02T04:50:51.094Z,5.65
2023-01-02T04:53:17.695Z,6.82
2023-01-02T04:55:44.246Z,6.00
2023-01-02T04:58:10.814Z,6.10
2023-01-02T05:00:37.402Z,6.75
2023-01-02T05:03:05.062Z,7.00
2023-01-02T05:05:32.099Z,6.53
2023-01-02T05:07:59.554Z,6.45
2023-01-02T05:10:26.119Z,6.43
2023-01-02T05:12:52.678Z,5.40
2023-01-02T05:15:19.207Z,3.85
2023-01-02T05:17:45.684Z,5.75
2023-01-02T05:20:13.590Z,6.40
2023-01-02T05:23:00.380Z,6.80
2023-01-02T05:25:27.558Z,5.80
2023-01-02T05:27:55.383Z,6.75
2023-01-02T05:30:22.826Z,6.10
2023-01-02T05:32:49.491Z,5.32
2023-01-02T05:35:16.129Z,5.70
2023-01-02T05:37:42.696Z,5.38
2023-01-02T05:40:09.958Z,6.35
2023-01-02T05:42:36.484Z,6.68
2023-01-02T05:45:04.601Z,6.68
2023-01-02T05:47:31.103Z,6.90
2023-01-02T05:49:57.642Z,7.45
2023-01-02T05:52:24.209Z,7.18
2023-01-02T05:54:50.722Z,7.25
2023-01-02T05:57:17.432Z,6.97
2023-01-02T05:59:43.980Z,6.88
2023-01-02T06:02:10.580Z,5.00
2023-01-02T06:04:37.207Z,5.18
2023-01-02T06:07:03.816Z,4.45
2023-01-02T06:09:30.322Z,3.97
2023-01-02T06:11:57.095Z,6.18
2023-01-02T06:14:24.191Z,6.85
2023-01-02T06:16:50.738Z,6.22
2023-01-02T06:19:17.235Z,6.32
2023-01-02T06:21:43.743Z,6.13
2023-01-02T06:24:10.268Z,6.45
2023-01-02T06:26:36.823Z,7.55
2023-01-02T06:29:04.331Z,6.68
2023-01-02T06:31:33.399Z,7.20
2023-01-02T06:34:01.997Z,7.63
2023-01-02T06:36:34.783Z,6.13
2023-01-02T06:39:01.615Z,6.38
2023-01-02T06:41:28.218Z,6.93
2023-01-02T06:43:54.768Z,5.85
2023-01-02T06:46:23.562Z,6.22
2023-01-02T06:48:50.370Z,6.10
2023-01-02T06:51:19.670Z,5.72
2023-01-02T06:53:46.623Z,6.20
2023-01-02T06:56:15.454Z,6.05
2023-01-02T06:58:41.935Z,6.25
2023-01-02T07:01:11.341Z,6.40
2023-01-02T07:03:38.118Z,6.78
2023-01-02T07:06:10.270Z,6.75
2023-01-02T07:08:37.090Z,6.93
2023-01-02T07:11:12.940Z,6.00
2023-01-02T07:13:40.715Z,6.88
2023-01-02T07:16:09.552Z,6.20
2023-01-02T07:18:36.936Z,6.00
2023-01-02T07:21:04.545Z,6.57
2023-01-02T07:23:31.055Z,5.72
2023-01-02T07:26:00.372Z,5.28
2023-01-02T07:28:28.686Z,6.03
2023-01-02T07:30:59.920Z,7.15
2023-01-02T07:33:28.519Z,7.47
2023-01-02T07:36:03.676Z,7.20
2023-01-02T07:38:30.360Z,6.90
2023-01-02T07:40:56.860Z,6.35
2023-01-02T07:43:23.853Z,6.10
2023-01-02T07:45:51.186Z,7.20
2023-01-02T07:48:18.221Z,5.40
2023-01-02T07:50:44.975Z,6.20
2023-01-02T07:53:11.563Z,5.65
2023-01-02T07:55:38.114Z,6.45
2023-01-02T07:58:04.670Z,6.35
2023-01-02T08:00:31.218Z,5.55
2023-01-02T08:02:57.724Z,6.18
2023-01-02T08:05:24.228Z,6.82
2023-01-02T08:07:50.774Z,6.55
2023-01-02T08:10:17.356Z,6.82
2023-01-02T08:12:46.649Z,7.05
2023-01-02T08:15:13.278Z,7.20
2023-01-02T08:17:41.949Z,6.28
2023-01-02T08:20:09.479Z,6.22
2023-01-02T08:22:36.183Z,6.55
2023-01-02T08:25:03.388Z,7.10
2023-01-02T08:27:29.894Z,7.15
2023-01-02T08:29:56.389Z,7.60
2023-01-02T08:32:22.945Z,6.50
2023-01-02T08:34:49.496Z,6.15
2023-01-02T08:37:16.114Z,5.95
2023-01-02T08:39:42.601Z,6.32
2023-01-02T08:42:09.175Z,6.60
2023-01-02T08:44:38.096Z,5.63
2023-01-02T08:47:06.574Z,6.28
2023-01-02T08:49:33.246Z,6.72
2023-01-02T08:51:59.844Z,6.55
2023-01-02T08:54:26.511Z,6.85
2023-01-02T08:56:53.403Z,7.05
2023-01-02T08:59:20.129Z,6.40
2023-01-02T09:01:46.801Z,6.00
2023-01-02T09:04:15.922Z,6.57
2023-01-02T09:06:43.416Z,6.43
2023-01-02T09:09:12.256Z,6.95
2023-01-02T09:11:51.600Z,6.32
2023-01-02T09:14:19.994Z,6.00
2023-01-02T09:16:46.940Z,5.85
2023-01-02T09:19:13.580Z,5.72
2023-01-02T09:21:40.132Z,6.07
2023-01-02T09:24:07.485Z,5.38
2023-01-02T09:26:34.777Z,5.47
2023-01-02T09:29:01.349Z,5.60
2023-01-02T09:31:28.002Z,5.50
2023-01-02T09:33:55.286Z,5.47
2023-01-02T09:36:22.975Z,5.13
2023-01-02T09:38:58.623Z,5.40
2023-01-02T09:41:42.127Z,4.82
2023-01-02T09:44:16.013Z,4.47
2023-01-02T09:46:48.347Z,4.80
2023-01-02T09:49:20.062Z,4.93
2023-01-02T09:51:47.589Z,5.10
2023-01-02T09:54:23.275Z,4.90
2023-01-02T09:59:29.309Z,4.65
2023-01-02T10:02:06.817Z,5.28
2023-01-02T10:04:50.617Z,5.05
2023-01-02T10:07:22.127Z,4.82
2023-01-02T10:10:00.908Z,5.20
2023-01-02T10:12:41.901Z,4.57
2023-01-02T10:15:15.865Z,5.15
2023-01-02T10:17:48.430Z,4.95
2023-01-02T10:20:17.742Z,4.97
2023-01-02T10:22:53.354Z,4.70
2023-01-02T10:25:29.718Z,4.95
2023-01-02T10:28:30.448Z,3.10
2023-01-02T10:31:26.333Z,5.18
2023-01-02T10:33:57.088Z,5.53
2023-01-02T10:36:36.271Z,4.85
2023-01-02T10:39:07.448Z,5.07
2023-01-02T10:41:35.328Z,5.22
2023-01-02T10:44:05.798Z,5.53
2023-01-02T10:46:35.497Z,4.72
2023-01-02T10:49:03.675Z,5.88
2023-01-02T10:51:31.202Z,5.63
2023-01-02T10:54:05.939Z,4.88
2023-01-02T10:56:34.658Z,5.68
2023-01-02T10:59:02.263Z,5.00
2023-01-02T11:01:29.746Z,4.57
2023-01-02T11:03:56.373Z,5.25
2023-01-02T11:06:35.173Z,4.22
2023-01-02T11:09:29.858Z,5.38
2023-01-02T11:12:00.508Z,3.92
2023-01-02T11:14:36.364Z,4.63
2023-01-02T11:19:43.038Z,4.80
2023-01-02T11:22:11.502Z,4.82
2023-01-02T11:25:06.633Z,5.28
2023-01-02T11:27:41.469Z,5.07
2023-01-02T11:30:25.533Z,5.18
2023-01-02T11:33:22.002Z,4.82
2023-01-02T11:35:52.091Z,4.32
2023-01-02T11:38:29.134Z,5.18
2023-01-02T11:41:00.486Z,5.32
2023-01-02T11:43:52.089Z,6.18
2023-01-02T11:46:23.978Z,5.55
2023-01-02T11:48:53.648Z,6.00
2023-01-02T11:51:21.764Z,5.35
2023-01-02T11:53:53.117Z,5.25
2023-01-02T11:56:30.462Z,5.50
2023-01-02T11:59:11.889Z,5.65
2023-01-02T12:02:00.386Z,5.90
2023-01-02T12:04:27.256Z,5.95
2023-01-02T12:07:27.675Z,6.00
2023-01-02T12:10:06.573Z,5.50
2023-01-02T12:13:21.904Z,5.50
2023-01-02T12:15:58.510Z,5.72
2023-01-02T12:18:39.213Z,5.97
2023-01-02T12:21:14.896Z,5.00
2023-01-02T12:23:46.119Z,5.88
2023-01-02T12:26:17.309Z,5.50
2023-01-02T12:29:13.814Z,5.53
2023-01-02T12:32:21.869Z,5.07
2023-01-02T12:35:07.624Z,5.35
2023-01-02T12:37:54.320Z,6.18
2023-01-02T12:40:47.235Z,6.00
2023-01-02T12:43:32.236Z,5.88
2023-01-02T12:46:39.982Z,5.60
2023-01-02T12:49:20.633Z,5.03
2023-01-02T12:52:07.002Z,6.18
2023-01-02T12:57:35.844Z,5.88
2023-01-02T13:00:17.937Z,5.20
2023-01-02T13:03:22.671Z,6.10
2023-01-02T13:06:01.498Z,5.88
2023-01-02T13:08:51.268Z,5.90
2023-01-02T13:11:30.193Z,5.95
2023-01-02T13:13:58.751Z,5.05
2023-01-02T13:16:26.499Z,5.38
2023-01-02T13:19:02.791Z,5.18
2023-01-02T13:21:46.492Z,6.18
2023-01-02T13:24:17.648Z,6.35
2023-01-02T13:26:44.593Z,5.72
2023-01-02T13:29:11.034Z,5.68
2023-01-02T13:31:47.325Z,5.43
2023-01-02T13:34:31.136Z,6.05
2023-01-02T13:37:10.094Z,5.53
2023-01-02T13:39:39.577Z,5.65
2023-01-02T13:42:38.262Z,5.47
2023-01-02T13:45:12.083Z,5.90
2023-01-02T13:47:45.179Z,6.10
2023-01-02T13:50:11.686Z,6.32
2023-01-02T13:52:41.034Z,6.03
2023-01-02T13:55:21.244Z,6.13
2023-01-02T13:58:15.842Z,5.63
2023-01-02T14:00:51.625Z,6.10
2023-01-02T14:03:23.781Z,7.03
2023-01-02T14:05:56.701Z,6.30
2023-01-02T14:08:33.231Z,6.43
2023-01-02T14:11:05.890Z,6.82
2023-01-02T14:13:43.128Z,6.95
2023-01-02T14:16:28.224Z,7.03
2023-01-02T14:19:15.043Z,7.85
2023-01-02T14:21:49.133Z,6.25
2023-01-02T14:24:30.794Z,6.68
2023-01-02T14:27:01.211Z,6.50
2023-01-02T14:29:29.614Z,6.85
2023-01-02T14:32:04.052Z,7.05
2023-01-02T14:34:30.803Z,6.97
2023-01-02T14:36:59.581Z,7.10
2023-01-02T14:39:30.599Z,7.65
2023-01-02T14:42:29.422Z,7.05
2023-01-02T14:45:03.250Z,7.25
2023-01-02T14:47:42.792Z,8.00
2023-01-02T14:50:18.360Z,7.72
2023-01-02T14:52:52.510Z,7.50
2023-01-02T14:55:24.152Z,6.82
2023-01-02T14:57:53.302Z,8.07
2023-01-02T15:00:38.418Z,7.63
2023-01-02T15:03:19.815Z,7.78
2023-01-02T15:05:53.652Z,6.53
2023-01-02T15:08:30.603Z,6.97
2023-01-02T15:11:22.571Z,7.65
2023-01-02T15:14:05.780Z,7.93
2023-01-02T15:16:38.206Z,7.40
2023-01-02T15:19:04.828Z,8.13
2023-01-02T15:21:31.676Z,9.07
2023-01-02T15:24:00.339Z,7.15
2023-01-02T15:26:33.327Z,7.90
2023-01-02T15:29:06.926Z,8.90
2023-01-02T15:31:33.748Z,7.72
2023-01-02T15:34:01.013Z,7.57
2023-01-02T15:36:36.742Z,8.32
2023-01-02T15:39:17.247Z,7.78
2023-01-02T15:41:47.333Z,7.50
2023-01-02T15:44:43.978Z,7.32
2023-01-02T15:47:11.788Z,6.03
2023-01-02T15:49:40.863Z,6.80
2023-01-02T15:52:16.228Z,7.15
2023-01-02T15:54:42.888Z,6.68
2023-01-02T15:57:17.640Z,7.13
2023-01-02T15:59:46.214Z,7.15
2023-01-02T16:02:40.795Z,6.80
2023-01-02T16:05:16.120Z,7.03
2023-01-02T16:07:48.100Z,7.23
2023-01-02T16:10:19.601Z,7.90
2023-01-02T16:13:05.244Z,7.32
2023-01-02T16:15:35.653Z,7.50
2023-01-02T16:18:02.948Z,7.85
2023-01-02T16:20:30.005Z,7.47
2023-01-02T16:23:04.365Z,8.32
2023-01-02T16:25:33.917Z,8.82
2023-01-02T16:28:35.271Z,7.90
2023-01-02T16:31:17.118Z,8.60
2023-01-02T16:33:45.859Z,8.70
2023-01-02T16:36:15.094Z,8.13
2023-01-02T16:38:52.028Z,7.90
2023-01-02T16:41:42.174Z,8.70
2023-01-02T16:44:16.721Z,9.00
2023-01-02T16:46:45.424Z,8.98
2023-01-02T16:49:15.848Z,8.65
2023-01-02T16:51:45.354Z,7.63
2023-01-02T16:54:16.279Z,8.02
2023-01-02T16:56:42.980Z,8.90
2023-01-02T16:59:09.791Z,8.98
2023-01-02T17:01:36.675Z,8.75
2023-01-02T17:04:03.941Z,7.70
2023-01-02T17:06:31.485Z,9.07
2023-01-02T17:09:01.661Z,7.65
2023-01-02T17:11:28.316Z,8.43
2023-01-02T17:13:54.832Z,8.25
2023-01-02T17:16:21.422Z,8.25
2023-01-02T17:18:48.004Z,8.05
2023-01-02T17:21:14.799Z,8.23
2023-01-02T17:23:41.556Z,8.15
2023-01-02T17:26:08.313Z,8.40
2023-01-02T17:28:34.915Z,7.78
2023-01-02T17:31:01.409Z,7.90
2023-01-02T17:33:27.945Z,7.38
2023-01-02T17:35:54.607Z,7.43
2023-01-02T17:38:21.156Z,8.05
2023-01-02T17:40:47.719Z,8.40
2023-01-02T17:43:14.212Z,7.25
2023-01-02T17:45:42.560Z,7.35
2023-01-02T17:48:12.172Z,7.75
2023-01-02T17:50:40.109Z,8.65
2023-01-02T17:53:07.076Z,11.15
2023-01-02T17:55:33.668Z,10.65
2023-01-02T17:58:01.224Z,10.05
2023-01-02T18:00:28.668Z,9.25
2023-01-02T18:02:55.626Z,9.40
2023-01-02T18:05:23.146Z,9.48
2023-01-02T18:07:49.817Z,9.32
2023-01-02T18:10:19.895Z,8.73
2023-01-02T18:12:47.313Z,8.32
2023-01-02T18:15:15.918Z,8.05
2023-01-02T18:17:42.717Z,7.93
2023-01-02T18:20:14.699Z,8.43
2023-01-02T18:22:48.378Z,8.90
2023-01-02T18:25:21.802Z,8.40
2023-01-02T18:27:48.788Z,9.05
2023-01-02T18:30:24.733Z,8.77
2023-01-02T18:33:00.785Z,8.30
2023-01-02T18:38:28.833Z,7.70
2023-01-02T18:40:55.434Z,7.38
2023-01-02T18:43:35.788Z,7.53
2023-01-02T18:46:20.881Z,7.18
2023-01-02T18:48:47.720Z,8.52
2023-01-02T18:51:21.398Z,7.05
2023-01-02T18:53:53.218Z,6.90
2023-01-02T18:56:24.275Z,7.35
2023-01-02T18:58:56.715Z,7.13
2023-01-02T19:01:30.054Z,6.50
2023-01-02T19:04:24.039Z,7.78
2023-01-02T19:06:56.029Z,6.95
2023-01-02T19:09:33.727Z,7.07
2023-01-02T19:12:34.064Z,6.57
2023-01-02T19:15:02.487Z,7.22
2023-01-02T19:17:32.431Z,8.00
2023-01-02T19:20:00.272Z,7.78
2023-01-02T19:22:33.442Z,6.88
2023-01-02T19:25:08.857Z,7.00
2023-01-02T19:27:38.229Z,7.97
2023-01-02T19:30:23.469Z,6.97
2023-01-02T19:32:49.976Z,7.25
2023-01-02T19:35:25.642Z,7.20
2023-01-02T19:37:52.528Z,7.15
2023-01-02T19:40:21.499Z,7.32
2023-01-02T19:42:49.739Z,7.35
2023-01-02T19:45:18.215Z,7.78
2023-01-02T19:47:46.118Z,7.25
2023-01-02T19:50:15.621Z,6.75
2023-01-02T19:52:42.518Z,7.78
2023-01-02T19:55:10.476Z,7.25
2023-01-02T19:57:37.038Z,7.20
2023-01-02T20:00:07.205Z,7.32
2023-01-02T20:02:34.218Z,7.50
2023-01-02T20:05:00.851Z,7.32
2023-01-02T20:07:27.385Z,7.38
2023-01-02T20:09:54.227Z,7.53
2023-01-02T20:12:30.896Z,7.25
2023-01-02T20:14:58.538Z,7.82
2023-01-02T20:17:25.259Z,7.57
2023-01-02T20:19:51.869Z,7.53
2023-01-02T20:22:18.374Z,7.80
2023-01-02T20:24:44.877Z,7.07
2023-01-02T20:27:11.530Z,7.10
2023-01-02T20:29:38.110Z,7.40
2023-01-02T20:32:04.829Z,7.03
2023-01-02T20:34:31.326Z,7.97
2023-01-02T20:36:58.059Z,7.68
2023-01-02T20:39:24.613Z,7.25
2023-01-02T20:41:51.233Z,7.30
2023-01-02T20:44:17.966Z,7.47
2023-01-02T20:46:44.610Z,7.47
2023-01-02T20:49:11.688Z,7.75
2023-01-02T20:51:39.023Z,7.25
2023-01-02T20:54:06.359Z,7.10
2023-01-02T20:56:33.035Z,7.35
2023-01-02T20:58:59.542Z,8.20
2023-01-02T21:01:26.240Z,7.30
2023-01-02T21:03:54.842Z,8.18
2023-01-02T21:06:21.455Z,7.20
2023-01-02T21:08:47.974Z,7.10
2023-01-02T21:11:14.668Z,7.43
2023-01-02T21:13:41.227Z,7.20
2023-01-02T21:16:07.809Z,7.22
2023-01-02T21:18:36.910Z,6.85
2023-01-02T21:21:10.640Z,7.28
2023-01-02T21:23:39.440Z,7.32
2023-01-02T21:26:08.257Z,7.57
2023-01-02T21:28:35.253Z,7.60
2023-01-02T21:31:02.373Z,7.18
2023-01-02T21:33:30.090Z,6.80
2023-01-02T21:35:59.466Z,7.15
2023-01-02T21:38:27.325Z,6.90
2023-01-02T21:40:54.889Z,7.18
2023-01-02T21:43:22.699Z,7.05
2023-01-02T21:45:49.321Z,6.68
2023-01-02T21:48:15.940Z,7.25
2023-01-02T21:50:42.467Z,6.75
2023-01-02T21:53:08.954Z,6.90
2023-01-02T21:55:35.445Z,6.35
2023-01-02T21:58:12.808Z,6.70
2023-01-02T22:00:39.685Z,6.47
2023-01-02T22:03:06.288Z,6.60
2023-01-02T22:05:32.915Z,6.57
2023-01-02T22:07:59.452Z,6.03
2023-01-02T22:10:26.133Z,7.70
2023-01-02T22:12:53.013Z,6.57
2023-01-02T22:15:19.565Z,6.93
2023-01-02T22:17:46.086Z,6.85
2023-01-02T22:20:12.705Z,6.95
2023-01-02T22:22:39.280Z,6.40
2023-01-02T22:25:07.271Z,6.65
2023-01-02T22:27:33.951Z,6.53
2023-01-02T22:32:48.392Z,6.80
2023-01-02T22:35:14.963Z,6.07
2023-01-02T22:37:41.515Z,6.88
2023-01-02T22:40:08.646Z,6.53
2023-01-02T22:43:06.166Z,6.78
2023-01-02T22:45:42.149Z,6.53
2023-01-02T22:48:21.213Z,7.15
2023-01-02T22:50:50.584Z,6.70
2023-01-02T22:53:21.132Z,6.63
2023-01-02T22:55:49.729Z,6.93
2023-01-02T22:58:16.853Z,6.32
2023-01-02T23:00:45.998Z,6.20
2023-01-02T23:03:14.226Z,6.80
2023-01-02T23:05:41.077Z,7.05
2023-01-02T23:08:08.205Z,6.60
2023-01-02T23:10:34.959Z,6.95
2023-01-02T23:13:01.569Z,6.82
2023-01-02T23:15:28.389Z,6.80
2023-01-02T23:18:15.798Z,6.65
2023-01-02T23:20:43.383Z,6.97
2023-01-02T23:23:10.144Z,6.90
2023-01-02T23:25:41.608Z,6.90
2023-01-02T23:28:08.171Z,7.13
2023-01-02T23:30:35.484Z,6.90
2023-01-02T23:33:02.097Z,7.20
2023-01-02T23:35:28.670Z,6.95
2023-01-02T23:37:55.180Z,7.30
2023-01-02T23:40:21.730Z,7.30
2023-01-02T23:42:48.264Z,7.72
2023-01-02T23:45:14.894Z,6.30
2023-01-02T23:47:41.406Z,6.78
2023-01-02T23:50:08.229Z,7.00
2023-01-02T23:52:34.736Z,7.07
2023-01-02T23:55:01.309Z,7.20
2023-01-02T23:57:28.305Z,7.03
2023-01-02T23:59:54.822Z,6.63
